createdAt,value
2018-02-24T00:00:01.449Z,-4.70
2018-02-24T00:02:30.150Z,-4.70
2018-02-24T00:04:59.140Z,-4.70
2018-02-24T00:07:27.843Z,-4.70
2018-02-24T00:09:56.440Z,-4.70
2018-02-24T00:12:25.984Z,-4.70
2018-02-24T00:14:54.873Z,-4.70
2018-02-24T00:17:23.822Z,-4.70
2018-02-24T00:19:53.055Z,-4.70
2018-02-24T00:22:21.647Z,-4.80
2018-02-24T00:24:51.057Z,-4.70
2018-02-24T00:27:19.697Z,-4.70
2018-02-24T00:29:48.150Z,-4.70
2018-02-24T00:32:15.944Z,-4.70
2018-02-24T00:34:45.065Z,-4.60
2018-02-24T00:37:13.936Z,-4.60
2018-02-24T00:39:42.395Z,-4.60
2018-02-24T00:42:11.818Z,-4.60
2018-02-24T00:44:40.907Z,-4.60
2018-02-24T00:47:10.308Z,-4.60
2018-02-24T00:49:39.459Z,-4.60
2018-02-24T00:52:08.011Z,-4.60
2018-02-24T00:54:37.189Z,-4.60
2018-02-24T00:57:05.720Z,-4.60
2018-02-24T00:59:34.137Z,-4.70
2018-02-24T01:02:02.488Z,-4.80
2018-02-24T01:04:31.025Z,-4.80
2018-02-24T01:06:59.501Z,-4.80
2018-02-24T01:09:28.235Z,-4.80
2018-02-24T01:11:57.161Z,-4.80
2018-02-24T01:14:25.872Z,-4.80
2018-02-24T01:16:55.130Z,-4.80
2018-02-24T01:19:23.990Z,-4.90
2018-02-24T01:21:53.241Z,-4.90
2018-02-24T01:24:21.955Z,-4.90
2018-02-24T01:26:52.032Z,-4.90
2018-02-24T01:29:20.863Z,-4.90
2018-02-24T01:31:49.349Z,-4.90
2018-02-24T01:34:19.747Z,-4.80
2018-02-24T01:36:49.060Z,-4.80
2018-02-24T01:39:18.011Z,-4.80
2018-02-24T01:41:46.917Z,-4.80
2018-02-24T01:44:15.974Z,-4.90
2018-02-24T01:46:45.970Z,-4.90
2018-02-24T01:49:14.963Z,-4.90
2018-02-24T01:51:43.426Z,-4.90
2018-02-24T01:54:13.096Z,-4.90
2018-02-24T01:56:41.701Z,-5.10
2018-02-24T01:59:10.657Z,-5.10
2018-02-24T02:01:39.277Z,-5.10
2018-02-24T02:04:07.699Z,-5.10
2018-02-24T02:06:36.177Z,-5.10
2018-02-24T02:09:04.380Z,-5.20
2018-02-24T02:11:34.399Z,-5.30
2018-02-24T02:14:03.175Z,-5.30
2018-02-24T02:16:31.971Z,-5.40
2018-02-24T02:19:00.441Z,-5.50
2018-02-24T02:21:29.109Z,-5.50
2018-02-24T02:23:57.192Z,-5.50
2018-02-24T02:26:27.644Z,-5.50
2018-02-24T02:28:56.860Z,-5.40
2018-02-24T02:31:25.862Z,-5.40
2018-02-24T02:33:54.682Z,-5.20
2018-02-24T02:36:23.134Z,-5.20
2018-02-24T02:38:51.851Z,-5.20
2018-02-24T02:41:20.303Z,-5.10
2018-02-24T02:43:49.419Z,-5.20
2018-02-24T02:46:18.395Z,-5.10
2018-02-24T02:48:46.845Z,-5.10
2018-02-24T02:51:15.533Z,-5.10
2018-02-24T02:53:44.348Z,-5.20
2018-02-24T02:56:13.599Z,-5.10
2018-02-24T02:58:42.916Z,-5.10
2018-02-24T03:01:11.489Z,-5.10
2018-02-24T03:03:40.766Z,-5.10
2018-02-24T03:06:09.477Z,-5.10
2018-02-24T03:08:39.104Z,-5.10
2018-02-24T03:11:07.542Z,-5.00
2018-02-24T03:13:37.483Z,-5.10
2018-02-24T03:16:06.894Z,-5.00
2018-02-24T03:18:36.098Z,-5.10
2018-02-24T03:21:05.210Z,-5.10
2018-02-24T03:23:33.677Z,-5.10
2018-02-24T03:26:03.627Z,-5.10
2018-02-24T03:28:32.688Z,-5.10
2018-02-24T03:31:01.539Z,-5.10
2018-02-24T03:33:30.851Z,-5.10
2018-02-24T03:35:58.946Z,-5.10
2018-02-24T03:38:28.742Z,-5.10
2018-02-24T03:40:57.680Z,-5.20
2018-02-24T03:43:26.485Z,-5.20
2018-02-24T03:45:57.123Z,-5.20
2018-02-24T03:48:27.893Z,-5.20
2018-02-24T03:50:56.108Z,-5.30
2018-02-24T03:53:25.231Z,-5.40
2018-02-24T03:55:54.739Z,-5.30
2018-02-24T03:58:23.490Z,-5.40
2018-02-24T04:00:54.217Z,-5.40
2018-02-24T04:03:25.206Z,-5.50
2018-02-24T04:05:54.674Z,-5.50
2018-02-24T04:08:24.003Z,-5.60
2018-02-24T04:10:52.453Z,-5.60
2018-02-24T04:13:22.098Z,-5.60
2018-02-24T04:15:50.810Z,-5.60
2018-02-24T04:18:18.943Z,-5.60
2018-02-24T04:20:47.386Z,-5.50
2018-02-24T04:23:16.073Z,-5.40
2018-02-24T04:25:44.781Z,-5.40
2018-02-24T04:28:13.444Z,-5.40
2018-02-24T04:30:42.202Z,-5.40
2018-02-24T04:33:11.126Z,-5.50
2018-02-24T04:35:40.550Z,-5.40
2018-02-24T04:38:09.084Z,-5.50
2018-02-24T04:40:38.724Z,-5.40
2018-02-24T04:43:08.297Z,-5.40
2018-02-24T04:45:36.982Z,-5.40
2018-02-24T04:48:05.681Z,-5.40
2018-02-24T04:50:34.094Z,-5.40
2018-02-24T04:53:04.399Z,-5.40
2018-02-24T04:55:34.438Z,-5.40
2018-02-24T04:58:03.145Z,-5.40
2018-02-24T05:00:32.221Z,-5.40
2018-02-24T05:03:02.020Z,-5.40
2018-02-24T05:05:30.759Z,-5.40
2018-02-24T05:07:59.967Z,-5.40
2018-02-24T05:10:27.733Z,-5.40
2018-02-24T05:12:56.156Z,-5.40
2018-02-24T05:15:24.567Z,-5.40
2018-02-24T05:17:53.421Z,-5.40
2018-02-24T05:20:21.510Z,-5.40
2018-02-24T05:22:51.372Z,-5.40
2018-02-24T05:25:20.321Z,-5.40
2018-02-24T05:27:49.183Z,-5.40
2018-02-24T05:30:17.837Z,-5.40
2018-02-24T05:32:46.553Z,-5.50
2018-02-24T05:35:15.902Z,-5.50
2018-02-24T05:37:45.480Z,-5.50
2018-02-24T05:40:14.170Z,-5.50
2018-02-24T05:42:43.478Z,-5.50
2018-02-24T05:45:12.950Z,-5.50
2018-02-24T05:47:41.698Z,-5.50
2018-02-24T05:50:12.489Z,-5.50
2018-02-24T05:52:41.511Z,-5.50
2018-02-24T05:55:10.613Z,-5.50
2018-02-24T05:57:39.043Z,-5.50
2018-02-24T06:00:08.412Z,-5.50
2018-02-24T06:02:37.110Z,-5.40
2018-02-24T06:05:06.032Z,-5.40
2018-02-24T06:07:34.792Z,-5.30
2018-02-24T06:10:04.317Z,-5.30
2018-02-24T06:12:33.412Z,-5.30
2018-02-24T06:15:01.980Z,-5.30
2018-02-24T06:17:30.395Z,-5.30
2018-02-24T06:19:58.792Z,-5.30
2018-02-24T06:22:27.026Z,-5.30
2018-02-24T06:24:55.880Z,-5.40
2018-02-24T06:27:24.091Z,-5.40
2018-02-24T06:29:53.343Z,-5.40
2018-02-24T06:32:22.567Z,-5.40
2018-02-24T06:34:51.297Z,-5.50
2018-02-24T06:37:20.828Z,-5.50
2018-02-24T06:39:50.190Z,-5.50
2018-02-24T06:42:19.548Z,-5.50
2018-02-24T06:44:47.963Z,-5.50
2018-02-24T06:47:17.454Z,-5.40
2018-02-24T06:49:45.912Z,-5.40
2018-02-24T06:52:14.605Z,-5.30
2018-02-24T06:54:43.152Z,-5.30
2018-02-24T06:57:12.269Z,-5.20
2018-02-24T06:59:42.428Z,-5.20
2018-02-24T07:02:11.260Z,-5.10
2018-02-24T07:04:40.026Z,-5.10
2018-02-24T07:07:09.948Z,-4.90
2018-02-24T07:09:38.702Z,-4.90
2018-02-24T07:12:08.370Z,-4.90
2018-02-24T07:14:37.913Z,-4.90
2018-02-24T07:17:07.519Z,-4.80
2018-02-24T07:19:36.078Z,-4.70
2018-02-24T07:22:04.882Z,-4.70
2018-02-24T07:24:33.594Z,-4.60
2018-02-24T07:27:02.125Z,-4.60
2018-02-24T07:29:30.768Z,-4.40
2018-02-24T07:31:59.250Z,-4.40
2018-02-24T07:34:27.944Z,-4.30
2018-02-24T07:36:56.736Z,-4.20
2018-02-24T07:39:25.291Z,-4.20
2018-02-24T07:41:54.010Z,-4.10
2018-02-24T07:44:22.371Z,-4.00
2018-02-24T07:46:51.448Z,-3.80
2018-02-24T07:49:20.063Z,-3.80
2018-02-24T07:51:49.174Z,-3.60
2018-02-24T07:54:17.603Z,-3.60
2018-02-24T07:56:46.146Z,-3.60
2018-02-24T07:59:16.006Z,-3.50
2018-02-24T08:01:45.477Z,-3.40
2018-02-24T08:04:13.891Z,-3.40
2018-02-24T08:06:47.369Z,-3.30
2018-02-24T08:11:52.858Z,-3.10
2018-02-24T08:14:21.711Z,-3.00
2018-02-24T08:16:50.635Z,-3.00
2018-02-24T08:19:19.590Z,-2.90
2018-02-24T08:21:50.336Z,-2.80
2018-02-24T08:24:18.854Z,-2.80
2018-02-24T08:26:47.346Z,-2.70
2018-02-24T08:29:16.107Z,-2.60
2018-02-24T08:31:44.944Z,-2.50
2018-02-24T08:34:13.420Z,-2.30
2018-02-24T08:36:42.438Z,-2.20
2018-02-24T08:39:10.919Z,-2.10
2018-02-24T08:41:39.418Z,-2.00
2018-02-24T08:44:08.346Z,-1.90
2018-02-24T08:49:30.138Z,-1.70
2018-02-24T08:52:02.711Z,-1.50
2018-02-24T08:54:31.477Z,-1.30
2018-02-24T08:56:59.649Z,-1.10
2018-02-24T08:59:28.143Z,-1.00
2018-02-24T09:01:56.797Z,-0.80
2018-02-24T09:04:25.262Z,-0.70
2018-02-24T09:06:54.273Z,-0.60
2018-02-24T09:09:22.910Z,-0.50
2018-02-24T09:11:51.646Z,-0.20
2018-02-24T09:14:20.349Z,0.00
2018-02-24T09:16:48.860Z,0.20
2018-02-24T09:19:17.574Z,0.40
2018-02-24T09:21:46.267Z,0.60
2018-02-24T09:24:15.102Z,0.70
2018-02-24T09:26:43.563Z,0.80
2018-02-24T09:29:11.809Z,0.90
2018-02-24T09:31:40.232Z,1.00
2018-02-24T09:34:09.061Z,1.00
2018-02-24T09:36:38.384Z,1.20
2018-02-24T09:39:07.438Z,1.30
2018-02-24T09:41:36.676Z,1.30
2018-02-24T09:44:05.529Z,1.60
2018-02-24T09:46:34.098Z,1.60
2018-02-24T09:49:02.996Z,1.60
2018-02-24T09:51:32.453Z,1.70
2018-02-24T09:54:01.122Z,1.80
2018-02-24T09:56:29.697Z,1.90
2018-02-24T09:58:58.128Z,2.00
2018-02-24T10:01:28.009Z,2.10
2018-02-24T10:03:57.127Z,2.20
2018-02-24T10:06:26.498Z,2.30
2018-02-24T10:08:55.181Z,2.40
2018-02-24T10:11:23.757Z,2.50
2018-02-24T10:13:52.486Z,2.70
2018-02-24T10:16:21.109Z,2.80
2018-02-24T10:18:49.787Z,3.00
2018-02-24T10:21:18.392Z,3.10
2018-02-24T10:23:47.037Z,3.30
2018-02-24T10:26:15.773Z,3.40
2018-02-24T10:28:44.740Z,3.40
2018-02-24T10:31:13.235Z,3.50
2018-02-24T10:33:42.021Z,3.60
2018-02-24T10:36:10.498Z,3.80
2018-02-24T10:38:39.044Z,3.90
2018-02-24T10:41:08.319Z,4.10
2018-02-24T10:43:37.083Z,4.10
2018-02-24T10:46:06.706Z,4.30
2018-02-24T10:48:42.961Z,4.40
2018-02-24T10:51:14.691Z,4.50
2018-02-24T10:53:43.410Z,4.50
2018-02-24T10:56:12.166Z,4.60
2018-02-24T10:58:40.739Z,4.70
2018-02-24T11:01:13.652Z,4.90
2018-02-24T11:03:46.585Z,5.00
2018-02-24T11:06:15.630Z,5.10
2018-02-24T11:08:44.642Z,5.30
2018-02-24T11:11:14.347Z,5.30
2018-02-24T11:13:42.766Z,5.40
2018-02-24T11:16:12.122Z,5.80
2018-02-24T11:18:40.932Z,5.80
2018-02-24T11:21:12.297Z,5.70
2018-02-24T11:23:41.438Z,5.90
2018-02-24T11:26:10.109Z,5.90
2018-02-24T11:28:39.118Z,7.00
2018-02-24T11:31:07.786Z,10.20
2018-02-24T11:33:37.449Z,13.30
2018-02-24T11:36:06.277Z,15.50
2018-02-24T11:38:36.074Z,17.60
2018-02-24T11:41:04.514Z,17.60
2018-02-24T11:43:32.975Z,18.70
2018-02-24T11:46:01.881Z,19.20
2018-02-24T11:48:30.285Z,19.10
2018-02-24T11:50:58.816Z,19.60
2018-02-24T11:56:14.856Z,20.20
2018-02-24T11:58:44.077Z,20.20
2018-02-24T12:01:14.427Z,20.60
2018-02-24T12:03:42.751Z,20.60
2018-02-24T12:06:11.193Z,20.30
2018-02-24T12:11:25.485Z,20.40
2018-02-24T12:13:54.367Z,20.40
2018-02-24T12:16:24.256Z,20.40
2018-02-24T12:18:54.809Z,20.30
2018-02-24T12:21:23.567Z,20.50
2018-02-24T12:23:54.302Z,21.30
2018-02-24T12:26:23.064Z,21.60
2018-02-24T12:28:51.717Z,21.80
2018-02-24T12:31:20.631Z,21.80
2018-02-24T12:33:49.358Z,21.80
2018-02-24T12:36:17.841Z,22.10
2018-02-24T12:38:46.340Z,22.20
2018-02-24T12:41:15.037Z,21.80
2018-02-24T12:43:43.885Z,21.50
2018-02-24T12:46:12.405Z,21.70
2018-02-24T12:48:42.011Z,21.90
2018-02-24T12:51:10.837Z,22.00
2018-02-24T12:53:39.599Z,19.80
2018-02-24T12:56:08.083Z,19.80
2018-02-24T12:58:36.889Z,20.10
2018-02-24T13:01:05.557Z,21.00
2018-02-24T13:03:42.124Z,21.30
2018-02-24T13:18:08.263Z,20.90
2018-02-24T13:20:44.531Z,21.10
2018-02-24T13:23:20.708Z,20.70
2018-02-24T13:25:59.474Z,19.80
2018-02-24T13:31:30.149Z,18.70
2018-02-24T13:34:08.365Z,18.30
2018-02-24T13:36:47.413Z,18.40
2018-02-24T13:43:09.660Z,14.70
2018-02-24T14:00:39.246Z,14.20
2018-02-24T14:03:29.318Z,14.70
2018-02-24T14:06:04.430Z,14.50
2018-02-24T14:08:39.899Z,13.40
2018-02-24T14:11:13.385Z,12.80
2018-02-24T14:21:11.454Z,14.60
2018-02-24T14:26:38.617Z,15.30
2018-02-24T14:29:15.846Z,15.30
2018-02-24T14:34:25.473Z,13.50
2018-02-24T14:36:59.623Z,13.20
2018-02-24T14:42:16.586Z,12.40
2018-02-24T14:44:49.074Z,11.60
2018-02-24T14:47:19.229Z,11.30
2018-02-24T14:49:48.435Z,11.70
2018-02-24T14:52:17.067Z,11.70
2018-02-24T14:54:45.696Z,12.00
2018-02-24T14:57:14.741Z,12.20
2018-02-24T14:59:43.566Z,12.10
2018-02-24T15:02:12.183Z,12.40
2018-02-24T15:04:41.058Z,12.10
2018-02-24T15:07:10.360Z,10.80
2018-02-24T15:09:39.864Z,10.80
2018-02-24T15:12:08.350Z,9.50
2018-02-24T15:14:37.946Z,8.70
2018-02-24T15:17:06.701Z,8.40
2018-02-24T15:19:36.079Z,7.80
2018-02-24T15:22:05.270Z,6.60
2018-02-24T15:24:33.921Z,6.60
2018-02-24T15:27:02.543Z,6.40
2018-02-24T15:29:31.167Z,6.50
2018-02-24T15:31:59.995Z,6.70
2018-02-24T15:34:29.097Z,7.00
2018-02-24T15:36:58.033Z,8.10
2018-02-24T15:39:26.658Z,9.30
2018-02-24T15:41:55.161Z,10.30
2018-02-24T15:44:23.976Z,10.70
2018-02-24T15:46:52.521Z,10.90
2018-02-24T15:49:22.241Z,11.20
2018-02-24T15:51:56.456Z,10.90
2018-02-24T15:54:25.384Z,10.80
2018-02-24T15:56:55.333Z,10.30
2018-02-24T15:59:24.513Z,9.20
2018-02-24T16:01:53.210Z,9.20
2018-02-24T16:04:21.924Z,7.90
2018-02-24T16:06:50.406Z,6.70
2018-02-24T16:09:19.672Z,5.10
2018-02-24T16:11:48.587Z,5.10
2018-02-24T16:14:17.113Z,4.70
2018-02-24T16:16:47.999Z,4.50
2018-02-24T16:19:17.364Z,4.20
2018-02-24T16:21:47.476Z,3.70
2018-02-24T16:24:16.335Z,3.50
2018-02-24T16:26:45.140Z,3.20
2018-02-24T16:29:13.966Z,2.80
2018-02-24T16:31:43.671Z,2.60
2018-02-24T16:34:12.265Z,2.70
2018-02-24T16:36:42.744Z,3.70
2018-02-24T16:39:11.327Z,3.70
2018-02-24T16:41:40.149Z,3.70
2018-02-24T16:44:09.842Z,3.10
2018-02-24T16:46:38.328Z,2.50
2018-02-24T16:49:07.127Z,2.00
2018-02-24T16:51:36.185Z,1.50
2018-02-24T16:54:04.924Z,1.30
2018-02-24T16:56:34.291Z,1.10
2018-02-24T16:59:03.044Z,0.90
2018-02-24T17:01:32.768Z,0.80
2018-02-24T17:04:01.184Z,0.80
2018-02-24T17:06:29.997Z,0.80
2018-02-24T17:08:58.979Z,0.70
2018-02-24T17:11:28.159Z,0.70
2018-02-24T17:13:56.889Z,0.60
2018-02-24T17:16:25.597Z,0.50
2018-02-24T17:18:54.331Z,0.50
2018-02-24T17:21:23.013Z,0.40
2018-02-24T17:23:53.312Z,0.30
2018-02-24T17:26:22.427Z,0.20
2018-02-24T17:28:51.539Z,0.20
2018-02-24T17:31:20.658Z,0.20
2018-02-24T17:33:49.240Z,0.10
2018-02-24T17:36:18.339Z,0.10
2018-02-24T17:38:46.911Z,0.10
2018-02-24T17:41:15.339Z,0.10
2018-02-24T17:43:44.032Z,0.10
2018-02-24T17:46:12.954Z,0.00
2018-02-24T17:48:42.333Z,0.00
2018-02-24T17:51:10.947Z,0.00
2018-02-24T17:53:39.466Z,-0.10
2018-02-24T17:56:07.994Z,-0.10
2018-02-24T17:58:37.616Z,-0.10
2018-02-24T18:01:05.818Z,-0.20
2018-02-24T18:03:34.513Z,-0.10
2018-02-24T18:06:04.057Z,-0.10
2018-02-24T18:08:32.994Z,-0.10
2018-02-24T18:11:02.090Z,-0.10
2018-02-24T18:13:31.365Z,-0.20
2018-02-24T18:16:01.177Z,-0.20
2018-02-24T18:18:29.550Z,-0.20
2018-02-24T18:20:58.578Z,-0.20
2018-02-24T18:23:28.125Z,-0.20
2018-02-24T18:25:56.566Z,-0.20
2018-02-24T18:28:25.245Z,-0.20
2018-02-24T18:30:54.155Z,-0.30
2018-02-24T18:33:22.889Z,-0.30
2018-02-24T18:35:51.751Z,-0.40
2018-02-24T18:38:20.179Z,-0.40
2018-02-24T18:40:48.896Z,-0.40
2018-02-24T18:43:17.297Z,-0.50
2018-02-24T18:45:45.971Z,-0.50
2018-02-24T18:48:14.682Z,-0.50
2018-02-24T18:50:43.534Z,-0.60
2018-02-24T18:53:11.971Z,-0.70
2018-02-24T18:55:40.909Z,-0.70
2018-02-24T18:58:09.994Z,-0.80
2018-02-24T19:00:40.007Z,-0.80
2018-02-24T19:03:08.598Z,-0.80
2018-02-24T19:05:37.137Z,-0.70
2018-02-24T19:08:06.182Z,-0.60
2018-02-24T19:10:34.678Z,-0.70
2018-02-24T19:13:03.126Z,-0.80
2018-02-24T19:15:32.288Z,-0.80
2018-02-24T19:18:01.319Z,-0.80
2018-02-24T19:20:30.246Z,-0.90
2018-02-24T19:22:58.970Z,-0.90
2018-02-24T19:25:27.298Z,-1.00
2018-02-24T19:27:55.972Z,-0.90
2018-02-24T19:30:24.198Z,-1.00
2018-02-24T19:32:56.748Z,-1.00
2018-02-24T19:35:25.586Z,-1.00
2018-02-24T19:37:55.160Z,-1.00
2018-02-24T19:40:24.886Z,-1.00
2018-02-24T19:42:53.729Z,-1.10
2018-02-24T19:45:22.201Z,-1.00
2018-02-24T19:47:50.605Z,-1.10
2018-02-24T19:50:19.168Z,-1.10
2018-02-24T19:52:48.639Z,-1.10
2018-02-24T19:55:17.241Z,-1.20
2018-02-24T19:57:46.360Z,-1.20
2018-02-24T20:00:15.121Z,-1.20
2018-02-24T20:02:43.819Z,-1.30
2018-02-24T20:05:13.166Z,-1.30
2018-02-24T20:07:42.098Z,-1.30
2018-02-24T20:10:11.233Z,-1.30
2018-02-24T20:12:40.157Z,-1.30
2018-02-24T20:15:09.975Z,-1.40
2018-02-24T20:17:38.419Z,-1.50
2018-02-24T20:20:07.110Z,-1.50
2018-02-24T20:22:35.823Z,-1.50
2018-02-24T20:25:04.674Z,-1.60
2018-02-24T20:27:33.479Z,-1.60
2018-02-24T20:30:01.982Z,-1.60
2018-02-24T20:32:31.189Z,-1.60
2018-02-24T20:35:00.404Z,-1.60
2018-02-24T20:37:29.735Z,-1.60
2018-02-24T20:39:58.553Z,-1.70
2018-02-24T20:42:26.988Z,-1.70
2018-02-24T20:44:55.473Z,-1.80
2018-02-24T20:47:24.147Z,-1.80
2018-02-24T20:49:54.105Z,-1.80
2018-02-24T20:52:22.443Z,-1.80
2018-02-24T20:54:51.038Z,-1.80
2018-02-24T20:57:20.467Z,-1.80
2018-02-24T20:59:49.307Z,-1.80
2018-02-24T21:02:17.976Z,-1.90
2018-02-24T21:04:46.675Z,-1.90
2018-02-24T21:07:15.774Z,-1.80
2018-02-24T21:09:44.427Z,-1.80
2018-02-24T21:12:13.129Z,-1.80
2018-02-24T21:14:41.827Z,-1.80
2018-02-24T21:17:10.264Z,-1.90
2018-02-24T21:19:42.099Z,-1.90
2018-02-24T21:22:10.541Z,-1.90
2018-02-24T21:24:39.508Z,-1.90
2018-02-24T21:27:08.223Z,-2.00
2018-02-24T21:29:37.396Z,-2.00
2018-02-24T21:32:06.399Z,-2.00
2018-02-24T21:34:35.541Z,-2.10
2018-02-24T21:37:04.258Z,-2.10
2018-02-24T21:39:33.253Z,-2.20
2018-02-24T21:42:03.063Z,-2.30
2018-02-24T21:44:31.883Z,-2.30
2018-02-24T21:47:00.561Z,-2.30
2018-02-24T21:49:29.218Z,-2.40
2018-02-24T21:51:58.158Z,-2.40
2018-02-24T21:54:27.386Z,-2.50
2018-02-24T21:56:56.395Z,-2.50
2018-02-24T21:59:25.208Z,-2.50
2018-02-24T22:01:54.318Z,-2.50
2018-02-24T22:04:22.817Z,-2.50
2018-02-24T22:06:51.364Z,-2.60
2018-02-24T22:09:20.412Z,-2.60
2018-02-24T22:11:49.104Z,-2.70
2018-02-24T22:14:17.667Z,-2.70
2018-02-24T22:16:46.969Z,-2.70
2018-02-24T22:19:15.605Z,-2.70
2018-02-24T22:21:46.506Z,-2.60
2018-02-24T22:24:15.451Z,-2.60
2018-02-24T22:26:44.458Z,-2.60
2018-02-24T22:29:13.489Z,-2.50
2018-02-24T22:31:43.631Z,-2.60
2018-02-24T22:34:12.715Z,-2.60
2018-02-24T22:39:17.789Z,-2.60
2018-02-24T22:41:46.710Z,-2.70
2018-02-24T22:44:16.229Z,-2.70
2018-02-24T22:46:45.103Z,-2.80
2018-02-24T22:49:41.005Z,-2.80
2018-02-24T22:52:16.028Z,-2.80
2018-02-24T22:57:40.537Z,-2.90
2018-02-24T23:02:51.490Z,-2.90
2018-02-24T23:05:21.365Z,-3.00
2018-02-24T23:07:49.711Z,-3.00
2018-02-24T23:10:18.214Z,-3.00
2018-02-24T23:12:47.770Z,-3.00
2018-02-24T23:15:16.395Z,-3.00
2018-02-24T23:17:46.682Z,-3.00
2018-02-24T23:20:15.467Z,-3.10
2018-02-24T23:22:48.100Z,-3.20
2018-02-24T23:25:17.380Z,-3.20
2018-02-24T23:27:46.065Z,-3.20
2018-02-24T23:30:15.126Z,-3.20
2018-02-24T23:32:44.160Z,-3.20
2018-02-24T23:35:14.742Z,-3.20
2018-02-24T23:37:44.804Z,-3.30
2018-02-24T23:40:13.118Z,-3.30
2018-02-24T23:42:41.730Z,-3.40
2018-02-24T23:45:12.293Z,-3.40
2018-02-24T23:47:42.752Z,-3.40
2018-02-24T23:50:12.394Z,-3.40
2018-02-24T23:52:41.278Z,-3.40
2018-02-24T23:55:10.541Z,-3.30
2018-02-24T23:57:39.145Z,-3.30
